sensor_id;sensor_type;location;lat;lon;timestamp;P1;durP1;ratioP1;P2;durP2;ratioP2
75362;SDS011;64122;51.988;5.892;2023-07-13T00:02:18;10.70;;;2.20;;
75362;SDS011;64122;51.988;5.892;2023-07-13T00:04:47;7.93;;;2.20;;
75362;SDS011;64122;51.988;5.892;2023-07-13T00:07:18;7.65;;;2.28;;
75362;SDS011;64122;51.988;5.892;2023-07-13T00:09:49;10.15;;;1.90;;
75362;SDS011;64122;51.988;5.892;2023-07-13T00:12:22;9.38;;;2.22;;
75362;SDS011;64122;51.988;5.892;2023-07-13T00:14:55;8.80;;;1.90;;
75362;SDS011;64122;51.988;5.892;2023-07-13T00:17:26;8.90;;;1.98;;
75362;SDS011;64122;51.988;5.892;2023-07-13T00:19:56;7.55;;;1.75;;
75362;SDS011;64122;51.988;5.892;2023-07-13T00:22:25;5.93;;;1.88;;
75362;SDS011;64122;51.988;5.892;2023-07-13T00:24:57;11.18;;;2.33;;
75362;SDS011;64122;51.988;5.892;2023-07-13T00:27:27;5.40;;;1.55;;
75362;SDS011;64122;51.988;5.892;2023-07-13T00:29:57;10.77;;;1.92;;
75362;SDS011;64122;51.988;5.892;2023-07-13T00:32:26;6.57;;;2.20;;
75362;SDS011;64122;51.988;5.892;2023-07-13T00:34:56;4.25;;;1.70;;
75362;SDS011;64122;51.988;5.892;2023-07-13T00:37:26;10.07;;;2.00;;
75362;SDS011;64122;51.988;5.892;2023-07-13T00:39:59;8.60;;;2.10;;
75362;SDS011;64122;51.988;5.892;2023-07-13T00:42:29;5.30;;;1.52;;
75362;SDS011;64122;51.988;5.892;2023-07-13T00:45:05;7.38;;;1.83;;
75362;SDS011;64122;51.988;5.892;2023-07-13T00:47:56;6.35;;;1.70;;
75362;SDS011;64122;51.988;5.892;2023-07-13T00:50:26;9.43;;;1.83;;
75362;SDS011;64122;51.988;5.892;2023-07-13T00:52:55;7.45;;;1.85;;
75362;SDS011;64122;51.988;5.892;2023-07-13T00:55:28;7.43;;;2.28;;
75362;SDS011;64122;51.988;5.892;2023-07-13T00:57:57;8.55;;;1.67;;
75362;SDS011;64122;51.988;5.892;2023-07-13T01:00:28;8.45;;;1.63;;
75362;SDS011;64122;51.988;5.892;2023-07-13T01:02:58;7.38;;;2.22;;
75362;SDS011;64122;51.988;5.892;2023-07-13T01:05:30;7.30;;;1.55;;
75362;SDS011;64122;51.988;5.892;2023-07-13T01:08:02;5.65;;;1.55;;
75362;SDS011;64122;51.988;5.892;2023-07-13T01:10:36;8.15;;;1.55;;
75362;SDS011;64122;51.988;5.892;2023-07-13T01:13:07;5.20;;;1.23;;
75362;SDS011;64122;51.988;5.892;2023-07-13T01:15:38;4.32;;;1.42;;
75362;SDS011;64122;51.988;5.892;2023-07-13T01:18:11;8.07;;;1.63;;
75362;SDS011;64122;51.988;5.892;2023-07-13T01:20:53;7.65;;;1.80;;
75362;SDS011;64122;51.988;5.892;2023-07-13T01:23:23;9.43;;;3.15;;
75362;SDS011;64122;51.988;5.892;2023-07-13T01:25:54;8.90;;;1.92;;
75362;SDS011;64122;51.988;5.892;2023-07-13T01:28:25;6.20;;;1.58;;
75362;SDS011;64122;51.988;5.892;2023-07-13T01:30:56;9.10;;;2.70;;
75362;SDS011;64122;51.988;5.892;2023-07-13T01:33:26;12.00;;;3.70;;
75362;SDS011;64122;51.988;5.892;2023-07-13T01:35:59;16.85;;;8.55;;
75362;SDS011;64122;51.988;5.892;2023-07-13T01:38:28;8.35;;;2.90;;
75362;SDS011;64122;51.988;5.892;2023-07-13T01:40:57;8.52;;;1.98;;
75362;SDS011;64122;51.988;5.892;2023-07-13T01:43:26;7.78;;;2.03;;
75362;SDS011;64122;51.988;5.892;2023-07-13T01:45:56;7.10;;;2.00;;
75362;SDS011;64122;51.988;5.892;2023-07-13T01:48:25;9.20;;;2.95;;
75362;SDS011;64122;51.988;5.892;2023-07-13T01:50:54;5.57;;;1.75;;
75362;SDS011;64122;51.988;5.892;2023-07-13T01:53:26;10.40;;;4.07;;
75362;SDS011;64122;51.988;5.892;2023-07-13T01:55:55;11.82;;;2.72;;
75362;SDS011;64122;51.988;5.892;2023-07-13T01:58:24;10.60;;;2.78;;
75362;SDS011;64122;51.988;5.892;2023-07-13T02:00:53;8.73;;;2.72;;
75362;SDS011;64122;51.988;5.892;2023-07-13T02:03:23;9.15;;;2.03;;
75362;SDS011;64122;51.988;5.892;2023-07-13T02:05:52;10.10;;;2.80;;
75362;SDS011;64122;51.988;5.892;2023-07-13T02:08:21;9.55;;;1.83;;
75362;SDS011;64122;51.988;5.892;2023-07-13T02:10:53;10.27;;;2.15;;
75362;SDS011;64122;51.988;5.892;2023-07-13T02:13:22;7.20;;;3.13;;
75362;SDS011;64122;51.988;5.892;2023-07-13T02:15:51;6.85;;;1.67;;
75362;SDS011;64122;51.988;5.892;2023-07-13T02:18:21;6.72;;;2.30;;
75362;SDS011;64122;51.988;5.892;2023-07-13T02:20:50;11.40;;;2.40;;
75362;SDS011;64122;51.988;5.892;2023-07-13T02:23:19;6.57;;;1.90;;
75362;SDS011;64122;51.988;5.892;2023-07-13T02:25:48;7.65;;;1.77;;
75362;SDS011;64122;51.988;5.892;2023-07-13T02:28:20;8.35;;;2.08;;
75362;SDS011;64122;51.988;5.892;2023-07-13T02:30:50;6.85;;;2.20;;
75362;SDS011;64122;51.988;5.892;2023-07-13T02:33:19;9.18;;;2.13;;
75362;SDS011;64122;51.988;5.892;2023-07-13T02:35:49;8.50;;;2.10;;
75362;SDS011;64122;51.988;5.892;2023-07-13T02:38:18;9.98;;;2.40;;
75362;SDS011;64122;51.988;5.892;2023-07-13T02:40:47;8.27;;;2.05;;
75362;SDS011;64122;51.988;5.892;2023-07-13T02:43:22;12.73;;;2.40;;
75362;SDS011;64122;51.988;5.892;2023-07-13T02:45:51;8.55;;;2.30;;
75362;SDS011;64122;51.988;5.892;2023-07-13T02:48:20;9.27;;;2.15;;
75362;SDS011;64122;51.988;5.892;2023-07-13T02:50:50;9.18;;;2.50;;
75362;SDS011;64122;51.988;5.892;2023-07-13T02:53:19;9.25;;;2.55;;
75362;SDS011;64122;51.988;5.892;2023-07-13T02:55:48;8.77;;;2.35;;
75362;SDS011;64122;51.988;5.892;2023-07-13T02:58:18;7.63;;;2.42;;
75362;SDS011;64122;51.988;5.892;2023-07-13T03:00:49;9.45;;;2.42;;
75362;SDS011;64122;51.988;5.892;2023-07-13T03:03:19;9.25;;;2.83;;
75362;SDS011;64122;51.988;5.892;2023-07-13T03:05:57;10.00;;;2.53;;
75362;SDS011;64122;51.988;5.892;2023-07-13T03:08:33;6.68;;;2.17;;
75362;SDS011;64122;51.988;5.892;2023-07-13T03:11:03;10.00;;;2.42;;
75362;SDS011;64122;51.988;5.892;2023-07-13T03:13:37;13.13;;;3.28;;
75362;SDS011;64122;51.988;5.892;2023-07-13T03:16:09;9.05;;;2.50;;
75362;SDS011;64122;51.988;5.892;2023-07-13T03:18:42;6.53;;;1.98;;
75362;SDS011;64122;51.988;5.892;2023-07-13T03:21:12;9.85;;;3.03;;
75362;SDS011;64122;51.988;5.892;2023-07-13T03:23:41;12.23;;;2.42;;
75362;SDS011;64122;51.988;5.892;2023-07-13T03:26:12;14.32;;;2.72;;
75362;SDS011;64122;51.988;5.892;2023-07-13T03:28:43;9.85;;;2.55;;
75362;SDS011;64122;51.988;5.892;2023-07-13T03:31:20;6.15;;;2.30;;
75362;SDS011;64122;51.988;5.892;2023-07-13T03:33:51;11.35;;;2.83;;
75362;SDS011;64122;51.988;5.892;2023-07-13T03:36:21;8.65;;;2.70;;
75362;SDS011;64122;51.988;5.892;2023-07-13T03:38:54;8.65;;;2.47;;
75362;SDS011;64122;51.988;5.892;2023-07-13T03:41:33;8.90;;;2.20;;
75362;SDS011;64122;51.988;5.892;2023-07-13T03:44:02;11.95;;;2.95;;
75362;SDS011;64122;51.988;5.892;2023-07-13T03:46:35;11.43;;;2.75;;
75362;SDS011;64122;51.988;5.892;2023-07-13T03:49:04;10.88;;;2.65;;
75362;SDS011;64122;51.988;5.892;2023-07-13T03:51:34;8.02;;;2.35;;
75362;SDS011;64122;51.988;5.892;2023-07-13T03:54:04;9.82;;;2.70;;
75362;SDS011;64122;51.988;5.892;2023-07-13T03:56:33;11.95;;;3.05;;
75362;SDS011;64122;51.988;5.892;2023-07-13T03:59:04;12.20;;;3.13;;
75362;SDS011;64122;51.988;5.892;2023-07-13T04:01:36;8.77;;;2.72;;
75362;SDS011;64122;51.988;5.892;2023-07-13T04:04:05;8.02;;;3.25;;
75362;SDS011;64122;51.988;5.892;2023-07-13T04:06:34;8.85;;;3.10;;
75362;SDS011;64122;51.988;5.892;2023-07-13T04:09:03;11.82;;;3.15;;
75362;SDS011;64122;51.988;5.892;2023-07-13T04:11:36;15.45;;;3.00;;
75362;SDS011;64122;51.988;5.892;2023-07-13T04:14:06;12.75;;;2.70;;
75362;SDS011;64122;51.988;5.892;2023-07-13T04:16:37;9.02;;;2.63;;
75362;SDS011;64122;51.988;5.892;2023-07-13T04:19:07;11.90;;;2.53;;
75362;SDS011;64122;51.988;5.892;2023-07-13T04:21:36;10.25;;;2.60;;
75362;SDS011;64122;51.988;5.892;2023-07-13T04:24:06;11.30;;;3.55;;
75362;SDS011;64122;51.988;5.892;2023-07-13T04:26:35;7.85;;;3.28;;
75362;SDS011;64122;51.988;5.892;2023-07-13T04:29:04;10.23;;;2.42;;
75362;SDS011;64122;51.988;5.892;2023-07-13T04:31:33;13.82;;;3.33;;
75362;SDS011;64122;51.988;5.892;2023-07-13T04:34:05;11.60;;;3.40;;
75362;SDS011;64122;51.988;5.892;2023-07-13T04:36:34;9.45;;;3.30;;
75362;SDS011;64122;51.988;5.892;2023-07-13T04:39:04;10.02;;;3.13;;
75362;SDS011;64122;51.988;5.892;2023-07-13T04:41:35;7.07;;;2.88;;
75362;SDS011;64122;51.988;5.892;2023-07-13T04:44:04;10.38;;;3.30;;
75362;SDS011;64122;51.988;5.892;2023-07-13T04:46:33;12.00;;;3.47;;
75362;SDS011;64122;51.988;5.892;2023-07-13T04:49:06;10.35;;;3.13;;
75362;SDS011;64122;51.988;5.892;2023-07-13T04:51:35;10.50;;;3.13;;
75362;SDS011;64122;51.988;5.892;2023-07-13T04:54:04;10.48;;;2.90;;
75362;SDS011;64122;51.988;5.892;2023-07-13T04:56:33;11.18;;;3.05;;
75362;SDS011;64122;51.988;5.892;2023-07-13T04:59:02;10.55;;;3.47;;
75362;SDS011;64122;51.988;5.892;2023-07-13T05:01:32;10.30;;;3.30;;
75362;SDS011;64122;51.988;5.892;2023-07-13T05:04:01;19.92;;;3.80;;
75362;SDS011;64122;51.988;5.892;2023-07-13T05:06:33;11.40;;;3.95;;
75362;SDS011;64122;51.988;5.892;2023-07-13T05:09:02;11.20;;;3.30;;
75362;SDS011;64122;51.988;5.892;2023-07-13T05:11:33;14.43;;;3.38;;
75362;SDS011;64122;51.988;5.892;2023-07-13T05:14:02;10.23;;;3.55;;
75362;SDS011;64122;51.988;5.892;2023-07-13T05:16:31;8.15;;;3.30;;
75362;SDS011;64122;51.988;5.892;2023-07-13T05:19:00;16.13;;;3.92;;
75362;SDS011;64122;51.988;5.892;2023-07-13T05:21:30;11.15;;;3.42;;
75362;SDS011;64122;51.988;5.892;2023-07-13T05:24:01;13.02;;;3.80;;
75362;SDS011;64122;51.988;5.892;2023-07-13T05:26:31;15.15;;;4.30;;
75362;SDS011;64122;51.988;5.892;2023-07-13T05:29:00;12.20;;;3.78;;
75362;SDS011;64122;51.988;5.892;2023-07-13T05:31:29;17.25;;;3.95;;
75362;SDS011;64122;51.988;5.892;2023-07-13T05:33:58;16.80;;;4.43;;
75362;SDS011;64122;51.988;5.892;2023-07-13T05:36:28;10.52;;;3.75;;
75362;SDS011;64122;51.988;5.892;2023-07-13T05:38:59;15.48;;;4.40;;
75362;SDS011;64122;51.988;5.892;2023-07-13T05:41:29;11.25;;;3.95;;
75362;SDS011;64122;51.988;5.892;2023-07-13T05:44:01;14.98;;;4.25;;
75362;SDS011;64122;51.988;5.892;2023-07-13T05:48:59;13.95;;;4.13;;
75362;SDS011;64122;51.988;5.892;2023-07-13T05:51:29;19.65;;;9.95;;
75362;SDS011;64122;51.988;5.892;2023-07-13T05:54:01;13.77;;;5.10;;
75362;SDS011;64122;51.988;5.892;2023-07-13T05:56:30;15.50;;;5.57;;
75362;SDS011;64122;51.988;5.892;2023-07-13T05:58:59;16.48;;;5.70;;
75362;SDS011;64122;51.988;5.892;2023-07-13T06:01:29;16.25;;;6.53;;
75362;SDS011;64122;51.988;5.892;2023-07-13T06:03:59;34.40;;;7.65;;
75362;SDS011;64122;51.988;5.892;2023-07-13T06:06:28;15.55;;;5.80;;
75362;SDS011;64122;51.988;5.892;2023-07-13T06:08:57;18.27;;;5.93;;
75362;SDS011;64122;51.988;5.892;2023-07-13T06:11:29;22.50;;;9.95;;
75362;SDS011;64122;51.988;5.892;2023-07-13T06:13:59;16.40;;;6.57;;
75362;SDS011;64122;51.988;5.892;2023-07-13T06:16:29;23.35;;;9.50;;
75362;SDS011;64122;51.988;5.892;2023-07-13T06:18:58;21.52;;;7.97;;
75362;SDS011;64122;51.988;5.892;2023-07-13T06:21:28;19.35;;;6.68;;
75362;SDS011;64122;51.988;5.892;2023-07-13T06:23:57;21.55;;;9.15;;
75362;SDS011;64122;51.988;5.892;2023-07-13T06:26:29;23.50;;;7.75;;
75362;SDS011;64122;51.988;5.892;2023-07-13T06:28:58;27.70;;;10.73;;
75362;SDS011;64122;51.988;5.892;2023-07-13T06:31:27;18.25;;;8.50;;
75362;SDS011;64122;51.988;5.892;2023-07-13T06:33:56;20.25;;;8.02;;
75362;SDS011;64122;51.988;5.892;2023-07-13T06:36:26;23.67;;;10.63;;
75362;SDS011;64122;51.988;5.892;2023-07-13T06:38:55;20.77;;;8.35;;
75362;SDS011;64122;51.988;5.892;2023-07-13T06:41:24;19.80;;;8.05;;
75362;SDS011;64122;51.988;5.892;2023-07-13T06:43:56;22.33;;;9.32;;
75362;SDS011;64122;51.988;5.892;2023-07-13T06:46:25;20.80;;;9.40;;
75362;SDS011;64122;51.988;5.892;2023-07-13T06:48:57;17.08;;;8.18;;
75362;SDS011;64122;51.988;5.892;2023-07-13T06:51:26;20.65;;;7.90;;
75362;SDS011;64122;51.988;5.892;2023-07-13T06:53:55;20.27;;;9.07;;
75362;SDS011;64122;51.988;5.892;2023-07-13T06:56:24;15.88;;;8.98;;
75362;SDS011;64122;51.988;5.892;2023-07-13T06:58:56;26.63;;;12.85;;
75362;SDS011;64122;51.988;5.892;2023-07-13T07:01:25;22.75;;;9.77;;
75362;SDS011;64122;51.988;5.892;2023-07-13T07:03:55;22.38;;;9.63;;
75362;SDS011;64122;51.988;5.892;2023-07-13T07:06:24;21.63;;;9.60;;
75362;SDS011;64122;51.988;5.892;2023-07-13T07:08:53;18.83;;;9.57;;
75362;SDS011;64122;51.988;5.892;2023-07-13T07:11:23;20.88;;;9.38;;
75362;SDS011;64122;51.988;5.892;2023-07-13T07:13:56;23.10;;;9.68;;
75362;SDS011;64122;51.988;5.892;2023-07-13T07:16:25;21.08;;;8.77;;
75362;SDS011;64122;51.988;5.892;2023-07-13T07:18:54;26.35;;;10.73;;
75362;SDS011;64122;51.988;5.892;2023-07-13T07:21:23;21.58;;;9.82;;
75362;SDS011;64122;51.988;5.892;2023-07-13T07:23:53;26.73;;;10.52;;
75362;SDS011;64122;51.988;5.892;2023-07-13T07:26:22;22.92;;;9.35;;
75362;SDS011;64122;51.988;5.892;2023-07-13T07:28:51;21.20;;;10.43;;
75362;SDS011;64122;51.988;5.892;2023-07-13T07:31:23;20.63;;;8.77;;
75362;SDS011;64122;51.988;5.892;2023-07-13T07:33:52;19.33;;;9.38;;
75362;SDS011;64122;51.988;5.892;2023-07-13T07:36:21;20.00;;;9.68;;
75362;SDS011;64122;51.988;5.892;2023-07-13T07:38:51;21.58;;;8.77;;
75362;SDS011;64122;51.988;5.892;2023-07-13T07:41:20;18.73;;;9.15;;
75362;SDS011;64122;51.988;5.892;2023-07-13T07:43:49;20.08;;;9.07;;
75362;SDS011;64122;51.988;5.892;2023-07-13T07:46:19;21.98;;;10.48;;
75362;SDS011;64122;51.988;5.892;2023-07-13T07:48:51;18.15;;;9.70;;
75362;SDS011;64122;51.988;5.892;2023-07-13T07:51:20;23.77;;;9.40;;
75362;SDS011;64122;51.988;5.892;2023-07-13T07:53:49;22.25;;;10.98;;
75362;SDS011;64122;51.988;5.892;2023-07-13T07:56:18;20.88;;;10.05;;
75362;SDS011;64122;51.988;5.892;2023-07-13T07:58:48;26.73;;;11.88;;
75362;SDS011;64122;51.988;5.892;2023-07-13T08:01:17;20.95;;;9.80;;
75362;SDS011;64122;51.988;5.892;2023-07-13T08:03:46;21.55;;;9.93;;
75362;SDS011;64122;51.988;5.892;2023-07-13T08:06:18;19.95;;;9.25;;
75362;SDS011;64122;51.988;5.892;2023-07-13T08:08:48;19.60;;;9.35;;
75362;SDS011;64122;51.988;5.892;2023-07-13T08:11:18;25.67;;;10.30;;
75362;SDS011;64122;51.988;5.892;2023-07-13T08:13:47;18.42;;;9.00;;
75362;SDS011;64122;51.988;5.892;2023-07-13T08:16:16;21.30;;;9.50;;
75362;SDS011;64122;51.988;5.892;2023-07-13T08:18:45;21.45;;;9.75;;
75362;SDS011;64122;51.988;5.892;2023-07-13T08:21:14;21.45;;;9.63;;
75362;SDS011;64122;51.988;5.892;2023-07-13T08:23:47;20.52;;;10.07;;
75362;SDS011;64122;51.988;5.892;2023-07-13T08:26:16;19.92;;;9.30;;
75362;SDS011;64122;51.988;5.892;2023-07-13T08:28:46;22.88;;;9.50;;
75362;SDS011;64122;51.988;5.892;2023-07-13T08:31:15;23.33;;;10.23;;
75362;SDS011;64122;51.988;5.892;2023-07-13T08:33:44;18.63;;;8.90;;
75362;SDS011;64122;51.988;5.892;2023-07-13T08:36:13;16.88;;;8.30;;
75362;SDS011;64122;51.988;5.892;2023-07-13T08:38:45;18.67;;;8.15;;
75362;SDS011;64122;51.988;5.892;2023-07-13T08:41:15;18.30;;;8.48;;
75362;SDS011;64122;51.988;5.892;2023-07-13T08:46:17;19.67;;;9.27;;
75362;SDS011;64122;51.988;5.892;2023-07-13T08:48:50;14.48;;;8.10;;
75362;SDS011;64122;51.988;5.892;2023-07-13T08:51:31;19.02;;;8.23;;
75362;SDS011;64122;51.988;5.892;2023-07-13T08:54:10;15.65;;;8.65;;
75362;SDS011;64122;51.988;5.892;2023-07-13T08:56:46;15.95;;;8.07;;
75362;SDS011;64122;51.988;5.892;2023-07-13T08:59:19;15.43;;;7.85;;
75362;SDS011;64122;51.988;5.892;2023-07-13T09:01:54;13.18;;;7.78;;
75362;SDS011;64122;51.988;5.892;2023-07-13T09:04:46;17.85;;;8.98;;
75362;SDS011;64122;51.988;5.892;2023-07-13T09:07:21;14.55;;;7.10;;
75362;SDS011;64122;51.988;5.892;2023-07-13T09:10:02;16.13;;;6.68;;
75362;SDS011;64122;51.988;5.892;2023-07-13T09:12:47;14.43;;;7.32;;
75362;SDS011;64122;51.988;5.892;2023-07-13T09:15:26;14.20;;;6.30;;
75362;SDS011;64122;51.988;5.892;2023-07-13T09:18:00;11.95;;;6.07;;
75362;SDS011;64122;51.988;5.892;2023-07-13T09:20:33;16.65;;;6.72;;
75362;SDS011;64122;51.988;5.892;2023-07-13T09:23:07;10.32;;;4.90;;
75362;SDS011;64122;51.988;5.892;2023-07-13T09:25:44;12.77;;;5.13;;
75362;SDS011;64122;51.988;5.892;2023-07-13T09:28:17;10.35;;;5.13;;
75362;SDS011;64122;51.988;5.892;2023-07-13T09:30:50;13.57;;;5.53;;
75362;SDS011;64122;51.988;5.892;2023-07-13T09:33:22;9.70;;;5.15;;
75362;SDS011;64122;51.988;5.892;2023-07-13T09:35:55;17.95;;;7.05;;
75362;SDS011;64122;51.988;5.892;2023-07-13T09:38:24;14.55;;;5.68;;
75362;SDS011;64122;51.988;5.892;2023-07-13T09:41:02;10.63;;;4.43;;
75362;SDS011;64122;51.988;5.892;2023-07-13T09:46:30;8.75;;;3.17;;
75362;SDS011;64122;51.988;5.892;2023-07-13T09:48:59;8.38;;;2.70;;
75362;SDS011;64122;51.988;5.892;2023-07-13T09:51:28;7.95;;;3.20;;
75362;SDS011;64122;51.988;5.892;2023-07-13T09:53:57;10.45;;;3.65;;
75362;SDS011;64122;51.988;5.892;2023-07-13T09:56:30;11.63;;;3.80;;
75362;SDS011;64122;51.988;5.892;2023-07-13T09:59:00;11.55;;;4.43;;
75362;SDS011;64122;51.988;5.892;2023-07-13T10:01:33;8.68;;;4.10;;
75362;SDS011;64122;51.988;5.892;2023-07-13T10:04:10;14.38;;;4.78;;
75362;SDS011;64122;51.988;5.892;2023-07-13T10:06:41;12.68;;;4.95;;
75362;SDS011;64122;51.988;5.892;2023-07-13T10:09:13;11.45;;;4.43;;
75362;SDS011;64122;51.988;5.892;2023-07-13T10:11:47;14.30;;;5.50;;
75362;SDS011;64122;51.988;5.892;2023-07-13T10:14:20;15.15;;;7.90;;
75362;SDS011;64122;51.988;5.892;2023-07-13T10:16:52;9.82;;;4.00;;
75362;SDS011;64122;51.988;5.892;2023-07-13T10:19:29;9.50;;;4.88;;
75362;SDS011;64122;51.988;5.892;2023-07-13T10:22:02;10.07;;;3.97;;
75362;SDS011;64122;51.988;5.892;2023-07-13T10:24:42;10.00;;;4.07;;
75362;SDS011;64122;51.988;5.892;2023-07-13T10:27:16;13.90;;;4.32;;
75362;SDS011;64122;51.988;5.892;2023-07-13T10:29:52;12.65;;;4.15;;
75362;SDS011;64122;51.988;5.892;2023-07-13T10:32:38;11.98;;;4.70;;
75362;SDS011;64122;51.988;5.892;2023-07-13T10:35:08;15.13;;;4.65;;
75362;SDS011;64122;51.988;5.892;2023-07-13T10:37:42;9.77;;;3.97;;
75362;SDS011;64122;51.988;5.892;2023-07-13T10:40:18;10.13;;;3.80;;
75362;SDS011;64122;51.988;5.892;2023-07-13T10:42:55;9.43;;;3.75;;
75362;SDS011;64122;51.988;5.892;2023-07-13T10:45:33;11.55;;;3.47;;
75362;SDS011;64122;51.988;5.892;2023-07-13T10:48:04;17.73;;;4.13;;
75362;SDS011;64122;51.988;5.892;2023-07-13T10:50:37;13.18;;;5.28;;
75362;SDS011;64122;51.988;5.892;2023-07-13T10:53:18;11.30;;;4.72;;
75362;SDS011;64122;51.988;5.892;2023-07-13T10:55:55;12.00;;;5.45;;
75362;SDS011;64122;51.988;5.892;2023-07-13T10:58:35;12.02;;;5.00;;
75362;SDS011;64122;51.988;5.892;2023-07-13T11:01:07;9.07;;;5.07;;
75362;SDS011;64122;51.988;5.892;2023-07-13T11:03:46;10.30;;;4.28;;
75362;SDS011;64122;51.988;5.892;2023-07-13T11:06:29;9.85;;;3.53;;
75362;SDS011;64122;51.988;5.892;2023-07-13T11:09:17;10.80;;;3.40;;
75362;SDS011;64122;51.988;5.892;2023-07-13T11:11:48;9.52;;;3.65;;
75362;SDS011;64122;51.988;5.892;2023-07-13T11:14:31;11.18;;;4.00;;
75362;SDS011;64122;51.988;5.892;2023-07-13T11:23:07;9.82;;;2.90;;
75362;SDS011;64122;51.988;5.892;2023-07-13T11:25:48;8.55;;;2.67;;
75362;SDS011;64122;51.988;5.892;2023-07-13T11:28:18;6.55;;;2.42;;
75362;SDS011;64122;51.988;5.892;2023-07-13T11:31:11;9.93;;;2.70;;
75362;SDS011;64122;51.988;5.892;2023-07-13T11:33:48;8.90;;;2.30;;
75362;SDS011;64122;51.988;5.892;2023-07-13T11:36:29;6.05;;;1.80;;
75362;SDS011;64122;51.988;5.892;2023-07-13T11:39:05;5.88;;;1.77;;
75362;SDS011;64122;51.988;5.892;2023-07-13T11:41:45;4.78;;;1.73;;
75362;SDS011;64122;51.988;5.892;2023-07-13T11:44:22;4.93;;;1.42;;
75362;SDS011;64122;51.988;5.892;2023-07-13T11:46:55;5.00;;;1.95;;
75362;SDS011;64122;51.988;5.892;2023-07-13T11:49:29;5.50;;;1.88;;
75362;SDS011;64122;51.988;5.892;2023-07-13T11:51:59;10.38;;;5.75;;
75362;SDS011;64122;51.988;5.892;2023-07-13T11:54:30;7.40;;;2.42;;
75362;SDS011;64122;51.988;5.892;2023-07-13T11:57:01;5.20;;;2.33;;
75362;SDS011;64122;51.988;5.892;2023-07-13T11:59:38;6.65;;;1.95;;
75362;SDS011;64122;51.988;5.892;2023-07-13T12:02:13;9.38;;;2.53;;
75362;SDS011;64122;51.988;5.892;2023-07-13T12:04:45;5.82;;;2.20;;
75362;SDS011;64122;51.988;5.892;2023-07-13T12:07:16;8.40;;;2.30;;
75362;SDS011;64122;51.988;5.892;2023-07-13T12:09:46;5.55;;;2.28;;
75362;SDS011;64122;51.988;5.892;2023-07-13T12:12:17;7.10;;;2.60;;
75362;SDS011;64122;51.988;5.892;2023-07-13T12:14:50;8.05;;;2.70;;
75362;SDS011;64122;51.988;5.892;2023-07-13T12:17:23;7.28;;;3.05;;
75362;SDS011;64122;51.988;5.892;2023-07-13T12:19:54;8.20;;;2.95;;
75362;SDS011;64122;51.988;5.892;2023-07-13T12:22:23;7.80;;;2.80;;
75362;SDS011;64122;51.988;5.892;2023-07-13T12:24:52;6.28;;;2.70;;
75362;SDS011;64122;51.988;5.892;2023-07-13T12:27:23;7.50;;;2.95;;
75362;SDS011;64122;51.988;5.892;2023-07-13T12:29:58;8.77;;;2.47;;
75362;SDS011;64122;51.988;5.892;2023-07-13T12:32:31;7.15;;;2.55;;
75362;SDS011;64122;51.988;5.892;2023-07-13T12:35:06;7.47;;;2.45;;
75362;SDS011;64122;51.988;5.892;2023-07-13T12:37:45;6.50;;;2.50;;
75362;SDS011;64122;51.988;5.892;2023-07-13T12:40:15;5.28;;;2.35;;
75362;SDS011;64122;51.988;5.892;2023-07-13T12:42:48;7.13;;;2.45;;
75362;SDS011;64122;51.988;5.892;2023-07-13T12:45:21;9.35;;;2.10;;
75362;SDS011;64122;51.988;5.892;2023-07-13T12:47:55;6.07;;;2.63;;
75362;SDS011;64122;51.988;5.892;2023-07-13T12:50:29;6.95;;;2.22;;
75362;SDS011;64122;51.988;5.892;2023-07-13T12:53:03;5.38;;;2.17;;
75362;SDS011;64122;51.988;5.892;2023-07-13T12:55:40;5.57;;;1.98;;
75362;SDS011;64122;51.988;5.892;2023-07-13T12:58:13;6.47;;;1.98;;
75362;SDS011;64122;51.988;5.892;2023-07-13T13:00:48;6.05;;;2.00;;
75362;SDS011;64122;51.988;5.892;2023-07-13T13:03:24;5.60;;;2.08;;
75362;SDS011;64122;51.988;5.892;2023-07-13T13:05:57;5.25;;;1.88;;
75362;SDS011;64122;51.988;5.892;2023-07-13T13:08:30;7.95;;;2.30;;
75362;SDS011;64122;51.988;5.892;2023-07-13T13:11:01;5.93;;;2.00;;
75362;SDS011;64122;51.988;5.892;2023-07-13T13:13:31;7.63;;;2.60;;
75362;SDS011;64122;51.988;5.892;2023-07-13T13:16:01;6.18;;;1.92;;
75362;SDS011;64122;51.988;5.892;2023-07-13T13:18:34;6.35;;;2.15;;
75362;SDS011;64122;51.988;5.892;2023-07-13T13:21:04;5.28;;;2.20;;
75362;SDS011;64122;51.988;5.892;2023-07-13T13:23:34;5.25;;;1.98;;
75362;SDS011;64122;51.988;5.892;2023-07-13T13:26:07;9.10;;;2.90;;
75362;SDS011;64122;51.988;5.892;2023-07-13T13:28:39;5.95;;;2.20;;
75362;SDS011;64122;51.988;5.892;2023-07-13T13:31:09;5.78;;;1.88;;
75362;SDS011;64122;51.988;5.892;2023-07-13T13:33:43;5.57;;;2.15;;
75362;SDS011;64122;51.988;5.892;2023-07-13T13:36:15;7.35;;;2.33;;
75362;SDS011;64122;51.988;5.892;2023-07-13T13:38:45;6.82;;;2.35;;
75362;SDS011;64122;51.988;5.892;2023-07-13T13:41:16;5.55;;;2.33;;
75362;SDS011;64122;51.988;5.892;2023-07-13T13:43:46;7.45;;;2.60;;
75362;SDS011;64122;51.988;5.892;2023-07-13T13:46:16;7.97;;;2.30;;
75362;SDS011;64122;51.988;5.892;2023-07-13T13:48:50;6.15;;;1.98;;
75362;SDS011;64122;51.988;5.892;2023-07-13T13:51:22;9.63;;;1.77;;
75362;SDS011;64122;51.988;5.892;2023-07-13T13:53:52;3.47;;;1.55;;
75362;SDS011;64122;51.988;5.892;2023-07-13T13:56:21;4.65;;;1.65;;
75362;SDS011;64122;51.988;5.892;2023-07-13T13:58:50;8.02;;;1.95;;
75362;SDS011;64122;51.988;5.892;2023-07-13T14:01:20;7.35;;;1.90;;
75362;SDS011;64122;51.988;5.892;2023-07-13T14:03:54;5.22;;;1.85;;
75362;SDS011;64122;51.988;5.892;2023-07-13T14:06:25;4.72;;;1.90;;
75362;SDS011;64122;51.988;5.892;2023-07-13T14:08:54;5.75;;;2.20;;
75362;SDS011;64122;51.988;5.892;2023-07-13T14:11:23;5.25;;;1.80;;
75362;SDS011;64122;51.988;5.892;2023-07-13T14:13:54;5.82;;;1.80;;
75362;SDS011;64122;51.988;5.892;2023-07-13T14:16:26;7.93;;;2.00;;
75362;SDS011;64122;51.988;5.892;2023-07-13T14:19:00;5.18;;;1.90;;
75362;SDS011;64122;51.988;5.892;2023-07-13T14:21:30;4.85;;;1.80;;
75362;SDS011;64122;51.988;5.892;2023-07-13T14:23:59;9.38;;;2.13;;
75362;SDS011;64122;51.988;5.892;2023-07-13T14:26:29;5.97;;;1.90;;
75362;SDS011;64122;51.988;5.892;2023-07-13T14:29:04;6.00;;;2.50;;
75362;SDS011;64122;51.988;5.892;2023-07-13T14:31:40;7.07;;;2.20;;
75362;SDS011;64122;51.988;5.892;2023-07-13T14:34:12;6.97;;;2.10;;
75362;SDS011;64122;51.988;5.892;2023-07-13T14:36:42;5.10;;;2.15;;
75362;SDS011;64122;51.988;5.892;2023-07-13T14:39:14;6.25;;;2.40;;
75362;SDS011;64122;51.988;5.892;2023-07-13T14:41:45;7.55;;;2.10;;
75362;SDS011;64122;51.988;5.892;2023-07-13T14:44:15;5.75;;;1.83;;
75362;SDS011;64122;51.988;5.892;2023-07-13T14:46:45;6.20;;;2.03;;
75362;SDS011;64122;51.988;5.892;2023-07-13T14:49:20;4.85;;;1.58;;
75362;SDS011;64122;51.988;5.892;2023-07-13T14:51:54;6.18;;;1.98;;
75362;SDS011;64122;51.988;5.892;2023-07-13T14:54:24;5.82;;;1.88;;
75362;SDS011;64122;51.988;5.892;2023-07-13T14:56:53;5.25;;;1.80;;
75362;SDS011;64122;51.988;5.892;2023-07-13T14:59:22;4.97;;;2.13;;
75362;SDS011;64122;51.988;5.892;2023-07-13T15:01:52;4.53;;;1.77;;
75362;SDS011;64122;51.988;5.892;2023-07-13T15:04:24;7.47;;;1.88;;
75362;SDS011;64122;51.988;5.892;2023-07-13T15:06:54;7.22;;;2.03;;
75362;SDS011;64122;51.988;5.892;2023-07-13T15:09:25;4.85;;;1.90;;
75362;SDS011;64122;51.988;5.892;2023-07-13T15:11:55;6.82;;;2.75;;
75362;SDS011;64122;51.988;5.892;2023-07-13T15:14:25;7.28;;;2.20;;
75362;SDS011;64122;51.988;5.892;2023-07-13T15:16:55;5.75;;;2.28;;
75362;SDS011;64122;51.988;5.892;2023-07-13T15:19:27;5.80;;;2.00;;
75362;SDS011;64122;51.988;5.892;2023-07-13T15:21:57;6.30;;;2.35;;